createdAt,value
2022-12-22T00:00:20.722Z,42.10
2022-12-22T00:03:06.726Z,43.47
2022-12-22T00:05:52.669Z,44.47
2022-12-22T00:08:38.254Z,41.08
2022-12-22T00:11:28.607Z,46.38
2022-12-22T00:14:14.155Z,49.63
2022-12-22T00:17:00.145Z,47.70
2022-12-22T00:19:47.650Z,45.55
2022-12-22T00:22:42.168Z,48.45
2022-12-22T00:25:32.110Z,49.85
2022-12-22T00:28:17.930Z,45.17
2022-12-22T00:31:06.945Z,48.28
2022-12-22T00:33:53.180Z,45.15
2022-12-22T00:36:41.220Z,44.60
2022-12-22T00:39:31.742Z,43.60
2022-12-22T00:42:17.449Z,49.53
2022-12-22T00:45:02.898Z,51.10
2022-12-22T00:47:49.648Z,54.20
2022-12-22T00:50:35.541Z,50.70
2022-12-22T00:53:24.855Z,50.83
2022-12-22T00:56:10.739Z,53.72
2022-12-22T00:58:56.484Z,49.58
2022-12-22T01:01:42.073Z,51.22
2022-12-22T01:04:30.367Z,48.83
2022-12-22T01:07:16.429Z,57.92
2022-12-22T01:10:07.935Z,53.97
2022-12-22T01:12:56.333Z,52.10
2022-12-22T01:15:42.851Z,50.45
2022-12-22T01:18:28.401Z,47.13
2022-12-22T01:21:14.286Z,49.92
2022-12-22T01:24:00.967Z,47.05
2022-12-22T01:26:46.445Z,49.28
2022-12-22T01:29:31.973Z,56.30
2022-12-22T01:32:18.041Z,51.38
2022-12-22T01:35:03.282Z,50.75
2022-12-22T01:37:48.527Z,47.38
2022-12-22T01:40:38.283Z,49.67
2022-12-22T01:43:47.041Z,62.22
2022-12-22T01:46:38.652Z,58.40
2022-12-22T01:49:29.065Z,57.03
2022-12-22T01:52:14.838Z,64.78
2022-12-22T01:55:01.120Z,62.05
2022-12-22T01:57:47.584Z,61.95
2022-12-22T02:00:32.913Z,57.58
2022-12-22T02:03:27.923Z,60.25
2022-12-22T02:06:33.170Z,53.17
2022-12-22T02:09:42.563Z,55.25
2022-12-22T02:12:56.718Z,52.05
2022-12-22T02:16:09.037Z,61.97
2022-12-22T02:19:09.818Z,55.42
2022-12-22T02:22:17.566Z,52.47
2022-12-22T02:25:13.586Z,58.25
2022-12-22T02:28:00.685Z,55.72
2022-12-22T02:30:47.237Z,69.43
2022-12-22T02:33:32.610Z,66.22
2022-12-22T02:36:41.073Z,70.22
2022-12-22T02:39:29.339Z,73.85
2022-12-22T02:42:42.006Z,79.45
2022-12-22T02:45:54.662Z,68.70
2022-12-22T02:48:46.282Z,68.32
2022-12-22T02:51:42.864Z,79.00
2022-12-22T02:54:29.234Z,68.95
2022-12-22T02:57:20.546Z,69.28
2022-12-22T03:00:06.076Z,69.15
2022-12-22T03:02:51.545Z,66.63
2022-12-22T03:05:37.060Z,64.78
2022-12-22T03:08:23.889Z,60.17
2022-12-22T03:11:09.610Z,58.40
2022-12-22T03:13:55.002Z,58.28
2022-12-22T03:16:43.226Z,57.72
2022-12-22T03:19:28.890Z,64.60
2022-12-22T03:22:14.492Z,60.53
2022-12-22T03:24:59.775Z,64.90
2022-12-22T03:27:26.543Z,59.20
2022-12-22T03:29:56.971Z,57.30
2022-12-22T03:32:23.773Z,61.95
2022-12-22T03:34:50.640Z,58.88
2022-12-22T03:37:17.480Z,55.72
2022-12-22T03:39:44.292Z,56.38
2022-12-22T03:42:30.544Z,53.30
2022-12-22T03:45:16.035Z,61.60
2022-12-22T03:47:50.277Z,60.00
2022-12-22T03:50:20.046Z,54.35
2022-12-22T03:52:46.827Z,61.67
2022-12-22T03:55:14.062Z,60.65
2022-12-22T03:57:40.925Z,62.83
2022-12-22T04:00:08.329Z,60.72
2022-12-22T04:02:35.312Z,57.63
2022-12-22T04:05:02.136Z,57.97
2022-12-22T04:07:28.955Z,57.88
2022-12-22T04:10:17.639Z,64.25
2022-12-22T04:12:56.051Z,58.85
2022-12-22T04:15:36.105Z,59.47
2022-12-22T04:18:18.888Z,58.03
2022-12-22T04:20:47.921Z,55.90
2022-12-22T04:23:14.951Z,55.15
2022-12-22T04:25:41.819Z,60.42
2022-12-22T04:28:09.042Z,56.05
2022-12-22T04:30:35.832Z,53.08
2022-12-22T04:33:02.737Z,53.65
2022-12-22T04:35:29.978Z,49.45
2022-12-22T04:37:57.262Z,56.00
2022-12-22T04:40:24.135Z,51.65
2022-12-22T04:42:51.301Z,54.63
2022-12-22T04:45:18.266Z,56.03
2022-12-22T04:47:47.081Z,49.95
2022-12-22T04:50:13.874Z,44.30
2022-12-22T04:52:40.837Z,55.88
2022-12-22T04:55:08.002Z,54.33
2022-12-22T04:57:40.254Z,47.65
2022-12-22T05:00:08.646Z,48.63
2022-12-22T05:02:35.600Z,48.10
2022-12-22T05:05:02.493Z,44.92
2022-12-22T05:07:29.302Z,43.30
2022-12-22T05:09:56.103Z,49.28
2022-12-22T05:12:41.333Z,46.45
2022-12-22T05:15:08.648Z,44.00
2022-12-22T05:17:35.434Z,47.28
2022-12-22T05:20:02.399Z,45.97
2022-12-22T05:22:29.192Z,45.55
2022-12-22T05:24:56.546Z,48.00
2022-12-22T05:27:23.393Z,44.78
2022-12-22T05:29:50.610Z,53.30
2022-12-22T05:32:17.422Z,49.17
2022-12-22T05:34:44.231Z,48.72
2022-12-22T05:37:11.074Z,54.53
2022-12-22T05:39:37.865Z,46.03
2022-12-22T05:42:04.780Z,56.10
2022-12-22T05:44:31.556Z,65.30
2022-12-22T05:46:58.336Z,88.30
2022-12-22T05:49:25.216Z,86.07
2022-12-22T05:51:53.952Z,67.13
2022-12-22T05:54:21.164Z,87.28
2022-12-22T05:56:48.051Z,108.97
2022-12-22T05:59:15.261Z,98.78
2022-12-22T06:01:42.121Z,84.82
2022-12-22T06:04:09.428Z,94.18
2022-12-22T06:06:36.339Z,109.78
2022-12-22T06:09:03.435Z,91.03
2022-12-22T06:11:30.688Z,73.97
2022-12-22T06:13:57.867Z,73.68
2022-12-22T06:16:25.191Z,85.80
2022-12-22T06:18:52.043Z,82.97
2022-12-22T06:21:18.899Z,77.38
2022-12-22T06:23:45.899Z,78.45
2022-12-22T06:26:13.391Z,86.22
2022-12-22T06:28:40.293Z,86.22
2022-12-22T06:31:09.998Z,87.85
2022-12-22T06:33:37.901Z,80.50
2022-12-22T06:36:08.822Z,78.97
2022-12-22T06:38:36.565Z,79.55
2022-12-22T06:41:04.433Z,76.47
2022-12-22T06:43:32.126Z,74.97
2022-12-22T06:45:59.535Z,76.85
2022-12-22T06:48:26.937Z,72.38
2022-12-22T06:53:42.697Z,87.63
2022-12-22T06:56:25.978Z,69.07
2022-12-22T06:59:01.883Z,59.17
2022-12-22T07:01:32.826Z,65.45
2022-12-22T07:09:20.849Z,64.82
2022-12-22T07:11:50.610Z,52.47
2022-12-22T07:14:20.895Z,51.67
2022-12-22T07:16:55.028Z,64.88
2022-12-22T07:22:29.985Z,49.50
2022-12-22T07:24:59.184Z,60.85
2022-12-22T07:27:27.025Z,57.10
2022-12-22T07:29:54.857Z,64.53
2022-12-22T07:32:22.678Z,63.08
2022-12-22T07:37:36.077Z,62.67
2022-12-22T07:42:48.941Z,61.35
2022-12-22T07:45:19.573Z,75.07
2022-12-22T07:53:19.058Z,56.28
2022-12-22T07:58:45.663Z,68.03
2022-12-22T08:01:13.756Z,58.10
2022-12-22T08:06:27.173Z,50.38
2022-12-22T08:08:54.781Z,52.38
2022-12-22T08:14:07.483Z,55.47
2022-12-22T08:29:22.008Z,57.88
2022-12-22T08:31:50.151Z,52.90
2022-12-22T08:34:17.920Z,62.95
2022-12-22T08:36:50.900Z,62.45
2022-12-22T08:39:21.029Z,61.88
2022-12-22T08:44:26.785Z,64.40
2022-12-22T08:46:56.748Z,57.65
2022-12-22T08:49:24.762Z,56.58
2022-12-22T08:51:52.833Z,59.50
2022-12-22T08:54:20.729Z,58.08
2022-12-22T09:02:18.941Z,65.72
2022-12-22T09:04:46.617Z,65.65
2022-12-22T09:07:15.342Z,63.97
2022-12-22T09:09:42.880Z,65.35
2022-12-22T09:12:10.380Z,65.38
2022-12-22T09:14:39.419Z,60.35
2022-12-22T09:19:36.524Z,64.43
2022-12-22T09:22:04.101Z,70.70
2022-12-22T09:24:32.450Z,67.78
2022-12-22T09:27:00.577Z,63.22
2022-12-22T09:29:27.904Z,74.57
2022-12-22T09:31:55.636Z,74.43
2022-12-22T09:34:24.039Z,76.65
2022-12-22T09:39:39.021Z,87.53
2022-12-22T09:44:46.254Z,79.95
2022-12-22T09:47:23.631Z,81.03
2022-12-22T09:49:57.808Z,82.03
2022-12-22T09:52:37.974Z,82.72
2022-12-22T09:55:32.860Z,88.30
2022-12-22T09:58:22.195Z,93.80
2022-12-22T10:01:10.614Z,79.68
2022-12-22T10:03:59.874Z,88.30
2022-12-22T10:06:37.780Z,87.53
2022-12-22T10:12:18.319Z,90.60
2022-12-22T10:14:48.779Z,94.43
2022-12-22T10:17:25.650Z,84.07
2022-12-22T10:20:06.190Z,83.80
2022-12-22T10:22:46.824Z,76.95
2022-12-22T10:25:35.609Z,71.72
2022-12-22T10:28:21.050Z,74.80
2022-12-22T10:30:48.961Z,73.18
2022-12-22T10:33:18.677Z,65.25
2022-12-22T10:35:58.057Z,74.10
2022-12-22T10:38:33.210Z,77.20
2022-12-22T10:41:12.330Z,69.20
2022-12-22T10:43:51.072Z,68.85
2022-12-22T10:46:20.498Z,67.13
2022-12-22T10:48:47.596Z,58.42
2022-12-22T10:51:16.083Z,60.95
2022-12-22T10:53:52.792Z,61.22
2022-12-22T10:56:26.549Z,64.35
2022-12-22T10:59:01.169Z,64.82
2022-12-22T11:01:37.654Z,60.45
2022-12-22T11:04:16.726Z,66.97
2022-12-22T11:06:44.488Z,68.80
2022-12-22T11:09:32.341Z,65.28
2022-12-22T11:12:08.557Z,74.35
2022-12-22T11:14:52.300Z,64.75
2022-12-22T11:18:01.304Z,74.75
2022-12-22T11:20:44.968Z,85.00
2022-12-22T11:23:26.670Z,84.95
2022-12-22T11:25:56.969Z,88.60
2022-12-22T11:28:38.632Z,85.22
2022-12-22T11:31:50.067Z,81.40
2022-12-22T11:34:51.191Z,81.35
2022-12-22T11:37:20.962Z,78.28
2022-12-22T11:39:59.719Z,85.35
2022-12-22T11:42:52.119Z,84.10
2022-12-22T11:45:42.886Z,79.90
2022-12-22T11:48:27.629Z,81.80
2022-12-22T11:51:14.646Z,84.18
2022-12-22T11:53:53.792Z,75.22
2022-12-22T11:56:40.526Z,87.05
2022-12-22T11:59:47.297Z,76.32
2022-12-22T12:02:51.695Z,66.60
2022-12-22T12:05:39.442Z,69.30
2022-12-22T12:08:27.669Z,73.13
2022-12-22T12:11:05.903Z,61.92
2022-12-22T12:14:07.675Z,70.53
2022-12-22T12:16:44.538Z,75.60
2022-12-22T12:19:45.728Z,72.18
2022-12-22T12:22:47.556Z,63.75
2022-12-22T12:25:39.517Z,63.17
2022-12-22T12:28:28.746Z,58.72
2022-12-22T12:30:58.843Z,66.70
2022-12-22T12:33:42.847Z,64.60
2022-12-22T12:36:29.986Z,67.55
2022-12-22T12:39:19.319Z,67.47
2022-12-22T12:42:03.823Z,74.00
2022-12-22T12:44:35.941Z,86.25
2022-12-22T12:47:25.820Z,87.82
2022-12-22T12:50:30.105Z,84.20
2022-12-22T12:53:11.169Z,79.22
2022-12-22T12:55:40.971Z,85.07
2022-12-22T12:58:12.504Z,83.82
2022-12-22T13:00:46.686Z,80.35
2022-12-22T13:04:01.052Z,78.35
2022-12-22T13:06:50.280Z,77.03
2022-12-22T13:09:49.383Z,75.03
2022-12-22T13:12:33.271Z,79.93
2022-12-22T13:15:02.418Z,91.80
2022-12-22T13:17:50.798Z,71.38
2022-12-22T13:20:25.699Z,73.93
2022-12-22T13:22:57.508Z,73.53
2022-12-22T13:25:42.226Z,71.85
2022-12-22T13:28:17.656Z,89.88
2022-12-22T13:30:50.429Z,101.25
2022-12-22T13:33:21.416Z,94.35
2022-12-22T13:35:54.899Z,91.00
2022-12-22T13:38:36.181Z,91.22
2022-12-22T13:41:13.872Z,91.00
2022-12-22T13:43:44.099Z,89.50
2022-12-22T13:46:16.622Z,99.85
2022-12-22T13:48:49.981Z,97.50
2022-12-22T13:51:27.367Z,93.20
2022-12-22T13:54:11.917Z,91.72
2022-12-22T13:56:49.557Z,93.53
2022-12-22T13:59:36.646Z,91.22
2022-12-22T14:02:17.721Z,91.63
2022-12-22T14:05:06.799Z,103.07
2022-12-22T14:07:33.812Z,83.75
2022-12-22T14:10:00.965Z,64.68
2022-12-22T14:12:38.622Z,69.82
2022-12-22T14:15:14.903Z,68.32
2022-12-22T14:17:46.193Z,57.35
2022-12-22T14:20:23.268Z,64.05
2022-12-22T14:22:55.299Z,53.38
2022-12-22T14:25:43.273Z,55.00
2022-12-22T14:28:34.520Z,50.67
2022-12-22T14:31:03.840Z,59.90
2022-12-22T14:33:34.980Z,61.92
2022-12-22T14:36:23.901Z,60.03
2022-12-22T14:39:01.179Z,61.55
2022-12-22T14:41:51.238Z,61.47
2022-12-22T14:44:28.209Z,93.75
2022-12-22T14:47:16.463Z,88.90
2022-12-22T14:49:57.184Z,104.47
2022-12-22T14:52:35.320Z,94.70
2022-12-22T14:55:05.852Z,95.57
2022-12-22T14:57:37.342Z,88.72
2022-12-22T15:00:29.058Z,78.68
2022-12-22T15:03:00.200Z,86.47
2022-12-22T15:05:33.177Z,77.15
2022-12-22T15:08:06.177Z,80.60
2022-12-22T15:10:39.900Z,77.00
2022-12-22T15:13:19.015Z,71.30
2022-12-22T15:15:45.934Z,61.60
2022-12-22T15:18:15.225Z,73.35
2022-12-22T15:20:42.188Z,66.03
2022-12-22T15:23:14.358Z,69.95
2022-12-22T15:25:41.903Z,73.15
2022-12-22T15:28:09.321Z,71.50
2022-12-22T15:30:36.621Z,72.15
2022-12-22T15:33:03.705Z,68.80
2022-12-22T15:35:37.184Z,72.75
2022-12-22T15:38:12.755Z,84.93
2022-12-22T15:40:39.631Z,86.80
2022-12-22T15:43:17.360Z,92.45
2022-12-22T15:45:54.295Z,93.28
2022-12-22T15:48:32.085Z,97.68
2022-12-22T15:51:00.146Z,98.72
2022-12-22T15:53:27.582Z,109.50
2022-12-22T15:55:58.493Z,106.53
2022-12-22T15:58:33.102Z,113.75
2022-12-22T16:01:00.160Z,110.53
2022-12-22T16:03:27.288Z,112.38
2022-12-22T16:05:54.649Z,109.70
2022-12-22T16:08:27.351Z,126.97
2022-12-22T16:10:54.666Z,132.15
2022-12-22T16:13:27.083Z,131.30
2022-12-22T16:15:56.281Z,126.70
2022-12-22T16:18:23.312Z,114.78
2022-12-22T16:20:51.199Z,117.22
2022-12-22T16:23:22.355Z,114.25
2022-12-22T16:25:55.544Z,115.60
2022-12-22T16:28:25.852Z,105.70
2022-12-22T16:30:53.131Z,92.68
2022-12-22T16:33:20.536Z,85.28
2022-12-22T16:35:47.836Z,87.15
2022-12-22T16:38:18.881Z,85.80
2022-12-22T16:40:52.876Z,88.07
2022-12-22T16:46:22.194Z,99.78
2022-12-22T16:48:57.118Z,96.13
2022-12-22T16:51:34.906Z,79.32
2022-12-22T16:54:04.763Z,81.32
2022-12-22T16:56:32.194Z,86.35
2022-12-22T16:59:00.870Z,89.15
2022-12-22T17:01:48.800Z,79.93
2022-12-22T17:04:20.245Z,99.22
2022-12-22T17:06:49.803Z,116.68
2022-12-22T17:09:27.980Z,142.68
2022-12-22T17:11:55.498Z,146.30
2022-12-22T17:14:30.305Z,160.95
2022-12-22T17:16:57.357Z,169.05
2022-12-22T17:19:24.151Z,185.63
2022-12-22T17:21:53.424Z,184.60
2022-12-22T17:24:27.854Z,166.00
2022-12-22T17:27:01.150Z,143.85
2022-12-22T17:29:30.008Z,150.45
2022-12-22T17:31:57.235Z,172.57
2022-12-22T17:34:24.165Z,137.27
2022-12-22T17:36:51.472Z,177.77
2022-12-22T17:39:22.698Z,134.30
2022-12-22T17:41:56.136Z,180.25
2022-12-22T17:44:25.475Z,151.35
2022-12-22T17:46:52.623Z,164.02
2022-12-22T17:49:22.304Z,149.75
2022-12-22T17:51:50.251Z,169.15
2022-12-22T17:54:27.774Z,145.70
2022-12-22T17:57:01.858Z,137.27
2022-12-22T17:59:28.992Z,173.05
2022-12-22T18:01:56.398Z,166.55
2022-12-22T18:04:23.342Z,138.98
2022-12-22T18:06:50.368Z,152.75
2022-12-22T18:09:25.123Z,145.15
2022-12-22T18:11:52.984Z,160.95
2022-12-22T18:14:22.140Z,157.68
2022-12-22T18:16:49.078Z,143.90
2022-12-22T18:19:16.409Z,167.00
2022-12-22T18:21:44.232Z,177.57
2022-12-22T18:24:18.836Z,152.70
2022-12-22T18:26:47.160Z,183.05
2022-12-22T18:29:17.926Z,189.30
2022-12-22T18:31:45.125Z,200.50
2022-12-22T18:34:12.805Z,198.50
2022-12-22T18:36:42.440Z,172.10
2022-12-22T18:39:17.563Z,175.25
2022-12-22T18:41:44.840Z,151.05
2022-12-22T18:44:19.131Z,143.35
2022-12-22T18:46:46.923Z,132.02
2022-12-22T18:49:14.201Z,146.80
2022-12-22T18:51:43.201Z,142.52
2022-12-22T18:54:30.007Z,134.95
2022-12-22T18:56:56.962Z,115.38
2022-12-22T18:59:27.904Z,127.22
2022-12-22T19:02:22.496Z,104.78
2022-12-22T19:04:50.487Z,109.93
2022-12-22T19:07:20.748Z,106.85
2022-12-22T19:09:48.102Z,98.00
2022-12-22T19:12:18.011Z,94.88
2022-12-22T19:14:47.833Z,107.60
2022-12-22T19:17:21.707Z,110.95
2022-12-22T19:19:48.633Z,119.35
2022-12-22T19:22:16.046Z,105.45
2022-12-22T19:24:46.700Z,114.50
2022-12-22T19:27:25.217Z,107.43
2022-12-22T19:30:02.653Z,121.53
2022-12-22T19:32:35.963Z,121.22
2022-12-22T19:35:02.978Z,161.85
2022-12-22T19:37:29.829Z,149.73
2022-12-22T19:39:56.663Z,143.55
2022-12-22T19:42:24.848Z,130.63
2022-12-22T19:44:51.797Z,135.68
2022-12-22T19:47:29.531Z,125.05
2022-12-22T19:49:56.655Z,122.53
2022-12-22T19:52:24.011Z,117.32
2022-12-22T19:54:50.755Z,119.82
2022-12-22T19:57:22.369Z,108.25
2022-12-22T19:59:52.403Z,97.65
2022-12-22T20:02:30.493Z,105.18
2022-12-22T20:04:58.366Z,107.75
2022-12-22T20:07:27.213Z,106.53
2022-12-22T20:09:54.579Z,114.38
2022-12-22T20:12:34.994Z,115.85
2022-12-22T20:15:13.589Z,121.88
2022-12-22T20:17:40.517Z,117.75
2022-12-22T20:20:12.784Z,124.43
2022-12-22T20:22:44.219Z,123.40
2022-12-22T20:25:17.342Z,122.30
2022-12-22T20:27:44.664Z,130.02
2022-12-22T20:30:19.635Z,126.00
2022-12-22T20:32:46.580Z,122.25
2022-12-22T20:35:13.692Z,122.40
2022-12-22T20:37:40.971Z,142.95
2022-12-22T20:40:29.695Z,120.50
2022-12-22T20:42:58.040Z,130.32
2022-12-22T20:45:29.391Z,125.60
2022-12-22T20:47:57.693Z,136.50
2022-12-22T20:50:30.162Z,120.45
2022-12-22T20:52:57.418Z,129.18
2022-12-22T20:55:26.942Z,111.32
2022-12-22T20:57:54.442Z,140.82
2022-12-22T21:00:24.683Z,129.90
2022-12-22T21:02:51.891Z,130.40
2022-12-22T21:05:20.145Z,127.85
2022-12-22T21:07:49.172Z,124.30
2022-12-22T21:10:26.379Z,121.20
2022-12-22T21:12:53.783Z,119.28
2022-12-22T21:15:23.262Z,146.63
2022-12-22T21:17:57.730Z,135.05
2022-12-22T21:20:28.188Z,111.65
2022-12-22T21:22:55.608Z,115.70
2022-12-22T21:25:23.328Z,120.75
2022-12-22T21:27:51.567Z,118.88
2022-12-22T21:30:30.454Z,108.60
2022-12-22T21:32:57.613Z,117.18
2022-12-22T21:35:35.738Z,108.78
2022-12-22T21:38:03.489Z,131.40
2022-12-22T21:40:32.037Z,130.48
2022-12-22T21:42:59.512Z,125.82
2022-12-22T21:45:29.764Z,129.63
2022-12-22T21:48:00.931Z,133.63
2022-12-22T21:50:33.860Z,135.73
2022-12-22T21:53:01.791Z,127.15
2022-12-22T21:55:32.347Z,104.47
2022-12-22T21:58:00.203Z,107.88
2022-12-22T22:00:28.765Z,105.82
2022-12-22T22:02:56.488Z,97.70
2022-12-22T22:05:36.296Z,111.70
2022-12-22T22:08:07.836Z,98.63
2022-12-22T22:10:40.632Z,75.22
2022-12-22T22:13:08.936Z,77.63
2022-12-22T22:15:36.884Z,83.28
2022-12-22T22:18:07.172Z,82.75
2022-12-22T22:20:34.692Z,75.53
2022-12-22T22:23:01.921Z,69.53
2022-12-22T22:25:28.984Z,74.95
2022-12-22T22:28:01.506Z,70.75
2022-12-22T22:30:28.644Z,80.13
2022-12-22T22:32:56.701Z,77.78
2022-12-22T22:35:25.138Z,70.68
2022-12-22T22:37:52.033Z,72.68
2022-12-22T22:40:21.799Z,79.75
2022-12-22T22:42:49.029Z,73.32
2022-12-22T22:45:27.203Z,76.78
2022-12-22T22:48:10.846Z,71.90
2022-12-22T22:50:40.950Z,72.57
2022-12-22T22:53:07.887Z,72.07
2022-12-22T22:55:34.908Z,80.47
2022-12-22T22:58:03.008Z,81.95
2022-12-22T23:00:30.038Z,72.13
2022-12-22T23:02:57.421Z,70.35
2022-12-22T23:05:24.401Z,68.32
2022-12-22T23:07:51.329Z,68.72
2022-12-22T23:10:18.332Z,75.05
2022-12-22T23:12:45.504Z,77.00
2022-12-22T23:15:12.755Z,68.82
2022-12-22T23:17:39.620Z,91.18
2022-12-22T23:20:07.160Z,81.85
2022-12-22T23:22:34.008Z,97.97
2022-12-22T23:25:00.857Z,98.43
2022-12-22T23:27:28.153Z,97.35
2022-12-22T23:29:55.061Z,89.47
2022-12-22T23:32:22.823Z,86.10
2022-12-22T23:34:49.742Z,85.25
2022-12-22T23:37:19.690Z,95.10
2022-12-22T23:39:47.193Z,93.35
2022-12-22T23:42:14.078Z,94.82
2022-12-22T23:44:40.915Z,94.90
2022-12-22T23:47:08.055Z,99.50
2022-12-22T23:49:35.001Z,99.90
2022-12-22T23:52:01.904Z,109.43
2022-12-22T23:54:30.461Z,111.47
2022-12-22T23:56:57.391Z,107.50
2022-12-22T23:59:24.229Z,104.68
